Time;durP1;ratioP1;P1;durP2;ratioP2;P2;SDS_P1;SDS_P2;PMS_P1;PMS_P2;Temp;Humidity;BMP_temperature;BMP_pressure;BME280_temperature;BME280_humidity;BME280_pressure;Samples;Min_cycle;Max_cycle;Signal;HPM_P1;HPM_P2
2023/08/23 00:04:24;;;;;;;18.25;16.08;;;;;;;21.24;73.85;97852.28;10373446;28;20100;-55
2023/08/23 00:09:23;;;;;;;20.35;16.40;;;;;;;21.24;73.60;97852.28;10374077;28;20092;-55
2023/08/23 00:14:22;;;;;;;17.90;15.93;;;;;;;21.20;73.76;97842.75;10374193;28;20031;-55
2023/08/23 00:19:21;;;;;;;20.55;15.30;;;;;;;21.16;73.73;97857.00;10372737;28;20065;-55
2023/08/23 00:24:20;;;;;;;23.85;17.15;;;;;;;21.16;73.51;97851.72;10372871;28;20021;-55
2023/08/23 00:29:19;;;;;;;19.33;15.95;;;;;;;21.11;74.14;97847.50;10373787;28;20047;-55
2023/08/23 00:34:18;;;;;;;20.63;16.17;;;;;;;21.07;73.99;97835.34;10372720;28;20379;-55
2023/08/23 00:39:17;;;;;;;20.83;16.30;;;;;;;21.05;74.04;97844.25;10372989;28;20056;-55
2023/08/23 00:44:16;;;;;;;19.73;16.40;;;;;;;20.74;74.28;97795.41;10370568;28;20041;-55
2023/08/23 00:49:15;;;;;;;18.60;15.40;;;;;;;20.93;74.45;97837.72;10369639;28;20175;-55
2023/08/23 00:54:14;;;;;;;20.52;16.92;;;;;;;20.90;74.69;97835.22;10369197;28;20112;-55
2023/08/23 00:59:14;;;;;;;17.48;15.75;;;;;;;20.79;75.64;97855.88;10369594;28;20503;-55
2023/08/23 01:04:13;;;;;;;22.13;17.52;;;;;;;20.56;76.35;97849.75;10369901;28;20052;-55
2023/08/23 01:09:15;;;;;;;21.13;18.05;;;;;;;20.43;76.86;97852.03;10371627;28;20029;-55
2023/08/23 01:14:27;;;;;;;20.45;18.08;;;;;;;20.26;76.52;97826.28;10370084;28;20539;-55
2023/08/23 01:19:50;;;;;;;22.40;16.80;;;;;;;20.32;76.83;97848.91;10370764;28;20059;-55
2023/08/23 01:24:49;;;;;;;20.83;18.17;;;;;;;20.32;77.01;97850.69;10369734;28;20048;-55
2023/08/23 01:29:48;;;;;;;19.30;17.30;;;;;;;20.22;77.20;97829.09;10370909;28;20029;-55
2023/08/23 01:34:57;;;;;;;25.65;17.27;;;;;;;20.26;77.50;97847.38;10370178;28;20108;-55
2023/08/23 01:39:58;;;;;;;20.05;15.75;;;;;;;20.29;77.49;97839.34;10368307;28;20574;-55
2023/08/23 01:44:57;;;;;;;18.25;16.13;;;;;;;20.29;77.43;97847.25;10369829;28;20083;-55
2023/08/23 01:49:56;;;;;;;19.40;16.50;;;;;;;20.30;77.40;97840.19;10370152;28;20060;-55
2023/08/23 01:54:55;;;;;;;19.92;16.85;;;;;;;20.25;77.67;97834.25;10370118;28;20056;-55
2023/08/23 01:59:56;;;;;;;19.60;17.50;;;;;;;20.25;78.01;97843.00;10369935;28;20033;-55
2023/08/23 02:04:55;;;;;;;21.60;16.38;;;;;;;20.06;78.82;97834.09;10367659;28;20106;-55
2023/08/23 02:09:53;;;;;;;23.30;16.15;;;;;;;20.22;78.31;97856.31;10369926;28;20044;-55
2023/08/23 02:14:52;;;;;;;19.90;17.50;;;;;;;20.15;78.62;97854.81;10368434;28;20027;-55
2023/08/23 02:19:51;;;;;;;19.58;17.35;;;;;;;20.10;78.40;97842.75;10367356;28;20586;-54
2023/08/23 02:24:50;;;;;;;19.95;17.20;;;;;;;20.01;78.66;97833.41;10364026;28;20123;-54
2023/08/23 02:29:49;;;;;;;21.05;17.63;;;;;;;20.04;78.85;97843.84;10366476;28;20024;-54
2023/08/23 02:34:48;;;;;;;22.75;18.55;;;;;;;20.04;78.83;97843.84;10366811;28;20132;-54
2023/08/23 02:39:47;;;;;;;20.17;17.23;;;;;;;19.97;79.38;97844.97;10363263;28;20104;-54
2023/08/23 02:44:46;;;;;;;20.35;17.63;;;;;;;19.93;79.71;97843.38;10366525;28;20124;-54
2023/08/23 02:49:45;;;;;;;21.83;17.85;;;;;;;19.87;79.97;97850.59;10366311;28;20067;-54
2023/08/23 02:54:44;;;;;;;24.45;18.38;;;;;;;19.77;80.22;97841.31;10367241;28;20487;-54
2023/08/23 02:59:43;;;;;;;22.73;17.92;;;;;;;19.55;80.63;97849.09;10367639;28;20116;-54
2023/08/23 03:04:42;;;;;;;22.40;18.40;;;;;;;19.41;80.61;97846.94;10367384;28;20121;-54
2023/08/23 03:09:41;;;;;;;21.50;18.08;;;;;;;19.31;80.91;97845.56;10367754;28;20021;-54
2023/08/23 03:14:41;;;;;;;26.77;17.83;;;;;;;19.14;81.51;97847.91;10364996;28;20047;-54
2023/08/23 03:19:40;;;;;;;24.52;19.02;;;;;;;19.04;81.94;97847.34;10366718;28;20439;-54
2023/08/23 03:24:39;;;;;;;24.55;18.98;;;;;;;19.05;81.66;97846.44;10366283;28;21718;-54
2023/08/23 03:29:38;;;;;;;23.23;18.63;;;;;;;19.05;81.72;97854.34;10367375;28;20047;-54
2023/08/23 03:34:36;;;;;;;27.05;20.40;;;;;;;19.07;81.82;97843.78;10365129;28;20139;-54
2023/08/23 03:39:37;;;;;;;26.95;19.52;;;;;;;19.08;82.04;97843.72;10366536;28;20036;-54
2023/08/23 03:44:37;;;;;;;23.48;18.80;;;;;;;19.13;81.68;97840.91;10365786;28;20491;-54
2023/08/23 03:49:36;;;;;;;24.13;19.45;;;;;;;19.18;81.78;97845.13;10365023;28;20496;-54
2023/08/23 03:54:35;;;;;;;21.70;17.95;;;;;;;19.23;81.82;97847.59;10365834;28;20051;-54
2023/08/23 03:59:34;;;;;;;26.05;18.85;;;;;;;19.30;81.65;97848.22;10365906;28;20483;-54
2023/08/23 04:04:33;;;;;;;25.83;19.00;;;;;;;19.24;82.04;97831.75;10364350;28;20037;-54
2023/08/23 04:09:32;;;;;;;32.85;18.77;;;;;;;19.37;81.75;97840.09;10365708;28;20107;-55
2023/08/23 04:14:30;;;;;;;22.17;18.38;;;;;;;19.41;81.56;97836.41;10365247;28;20032;-55
2023/08/23 04:19:30;;;;;;;22.52;18.77;;;;;;;19.16;81.37;97804.00;10365893;28;20031;-55
2023/08/23 04:24:29;;;;;;;25.40;19.33;;;;;;;19.41;81.32;97830.28;10364695;28;20191;-55
2023/08/23 04:29:27;;;;;;;24.10;19.05;;;;;;;18.54;81.36;97679.00;10364894;28;20128;-55
2023/08/23 04:34:26;;;;;;;22.77;19.73;;;;;;;19.06;81.80;97777.16;10364771;28;20035;-55
2023/08/23 04:39:25;;;;;;;24.52;18.98;;;;;;;19.24;81.74;97801.97;10365554;28;20151;-55
2023/08/23 04:44:26;;;;;;;24.00;20.33;;;;;;;19.48;81.46;97831.78;10364656;28;20047;-55
2023/08/23 04:49:25;;;;;;;25.77;19.38;;;;;;;19.68;81.09;97844.28;10367426;28;20804;-55
2023/08/23 04:54:24;;;;;;;23.98;19.25;;;;;;;19.77;81.01;97848.38;10372209;28;20811;-55
2023/08/23 04:59:23;;;;;;;24.80;19.63;;;;;;;19.86;80.66;97853.28;10372150;28;20033;-55
2023/08/23 05:04:23;;;;;;;23.52;19.52;;;;;;;20.01;80.07;97852.72;10387447;28;20125;-55
2023/08/23 05:09:22;;;;;;;25.42;18.63;;;;;;;20.09;79.79;97855.06;10371994;28;20112;-55
2023/08/23 05:14:21;;;;;;;28.65;20.55;;;;;;;20.12;80.05;97852.31;10371079;28;20115;-55
2023/08/23 05:19:20;;;;;;;26.30;18.90;;;;;;;20.19;79.52;97838.00;10333494;28;20518;-55
2023/08/23 05:24:19;;;;;;;29.15;19.83;;;;;;;20.44;79.27;97847.59;10328930;28;20044;-55
2023/08/23 05:29:18;;;;;;;39.30;20.10;;;;;;;20.62;78.63;97840.75;10328808;28;20472;-55
2023/08/23 05:34:17;;;;;;;26.50;18.40;;;;;;;20.69;78.47;97839.56;10328312;28;20034;-55
2023/08/23 05:39:16;;;;;;;38.60;20.17;;;;;;;20.77;78.57;97845.38;10326993;28;20032;-55
2023/08/23 05:44:15;;;;;;;32.97;19.35;;;;;;;20.75;77.91;97812.97;10328043;28;20129;-55
2023/08/23 05:49:14;;;;;;;26.05;19.42;;;;;;;20.73;77.28;97771.72;10328706;28;20131;-55
2023/08/23 05:54:13;;;;;;;24.33;18.60;;;;;;;20.99;76.99;97779.41;10329740;28;20041;-55
2023/08/23 05:59:12;;;;;;;24.25;17.67;;;;;;;21.48;75.85;97823.97;10330291;28;20478;-55
2023/08/23 06:04:10;;;;;;;21.13;17.40;;;;;;;21.61;75.24;97834.84;10328542;28;20101;-55
2023/08/23 06:09:09;;;;;;;21.20;16.20;;;;;;;21.57;75.19;97814.78;10329566;28;20029;-54
2023/08/23 06:14:18;;;;;;;22.23;16.10;;;;;;;22.04;74.10;97833.81;10326416;28;20111;-55
2023/08/23 06:19:17;;;;;;;21.42;16.73;;;;;;;22.37;71.64;97835.81;10328844;28;20060;-55
2023/08/23 06:24:16;;;;;;;21.98;16.70;;;;;;;22.70;70.42;97832.47;10330008;28;20033;-55
2023/08/23 06:29:15;;;;;;;19.85;16.63;;;;;;;23.02;69.54;97822.94;10330266;28;20026;-55
2023/08/23 06:34:14;;;;;;;19.45;16.25;;;;;;;23.27;67.64;97832.31;10329858;28;20104;-55
2023/08/23 06:39:13;;;;;;;19.95;16.10;;;;;;;23.48;66.56;97817.97;10326443;28;20107;-55
2023/08/23 06:44:12;;;;;;;22.02;16.25;;;;;;;23.60;65.84;97813.81;10325794;28;20077;-55
2023/08/23 06:49:11;;;;;;;17.40;14.65;;;;;;;23.87;63.79;97822.09;10326342;28;20108;-55
2023/08/23 06:54:10;;;;;;;17.63;15.82;;;;;;;24.05;63.05;97817.59;10321145;28;20057;-55
2023/08/23 06:59:09;;;;;;;21.23;16.40;;;;;;;24.29;62.27;97823.38;10329149;28;20030;-55
2023/08/23 07:04:08;;;;;;;20.27;15.40;;;;;;;24.62;60.62;97831.22;10324146;28;20033;-55
2023/08/23 07:09:07;;;;;;;23.20;15.55;;;;;;;24.73;59.94;97806.75;10325801;28;20736;-55
2023/08/23 07:14:08;;;;;;;19.02;14.77;;;;;;;25.18;59.68;97823.63;10323156;28;20061;-55
2023/08/23 07:19:08;;;;;;;19.40;14.65;;;;;;;25.36;58.35;97819.00;10317522;28;20069;-55
2023/08/23 07:24:07;;;;;;;16.90;14.23;;;;;;;25.47;57.46;97778.50;10327170;28;20065;-55
2023/08/23 07:29:06;;;;;;;19.60;14.45;;;;;;;25.67;55.65;97799.44;10327193;28;20104;-55
2023/08/23 07:34:04;;;;;;;15.55;13.18;;;;;;;25.67;54.22;97772.84;10328689;28;20137;-56
2023/08/23 07:39:03;;;;;;;14.75;12.73;;;;;;;26.34;53.45;97809.44;10327993;28;20054;-55
2023/08/23 07:44:02;;;;;;;20.25;12.85;;;;;;;26.14;51.71;97745.06;10328000;28;20758;-56
2023/08/23 07:49:01;;;;;;;18.77;13.70;;;;;;;26.59;50.13;97766.13;10326070;28;20051;-56
2023/08/23 07:54:00;;;;;;;13.40;11.75;;;;;;;26.90;49.27;97754.31;10321344;28;20056;-55
2023/08/23 07:59:00;;;;;;;17.05;13.35;;;;;;;27.37;48.49;97779.50;10324535;28;20083;-56
2023/08/23 08:03:59;;;;;;;16.30;12.98;;;;;;;27.44;47.18;97747.97;10321089;28;20121;-56
2023/08/23 08:08:58;;;;;;;16.17;12.63;;;;;;;27.83;47.67;97754.16;10327597;28;20030;-56
2023/08/23 08:13:57;;;;;;;15.32;12.57;;;;;;;28.38;47.68;97792.00;10323602;28;20904;-56
2023/08/23 08:18:56;;;;;;;13.90;12.48;;;;;;;28.58;46.67;97778.06;10323917;28;20136;-56
2023/08/23 08:23:55;;;;;;;16.90;13.23;;;;;;;28.93;46.14;97776.44;10319523;28;20030;-56
2023/08/23 08:28:54;;;;;;;15.50;12.80;;;;;;;29.27;44.93;97772.03;10325156;28;20053;-56
2023/08/23 08:33:53;;;;;;;14.35;12.85;;;;;;;29.45;44.89;97756.41;10333665;28;20875;-56
2023/08/23 08:38:52;;;;;;;16.27;12.20;;;;;;;29.79;43.37;97769.78;10328257;28;20435;-56
2023/08/23 08:43:52;;;;;;;15.07;11.07;;;;;;;30.06;42.39;97766.75;10345347;28;20121;-56
2023/08/23 08:48:51;;;;;;;15.07;10.88;;;;;;;30.25;40.25;97744.72;10321544;28;20600;-56
2023/08/23 08:53:52;;;;;;;14.27;10.57;;;;;;;30.69;38.63;97762.50;10327566;28;20679;-57
2023/08/23 08:58:51;;;;;;;14.60;10.48;;;;;;;31.05;39.59;97765.75;10317786;28;20108;-56
2023/08/23 09:03:50;;;;;;;12.70;9.88;;;;;;;31.18;36.98;97760.22;10331936;28;20492;-56
2023/08/23 09:08:49;;;;;;;12.10;10.10;;;;;;;31.24;37.29;97756.16;10327856;28;20556;-56
2023/08/23 09:13:48;;;;;;;11.73;10.10;;;;;;;31.49;36.60;97723.56;10323213;28;20128;-56
2023/08/23 09:18:47;;;;;;;11.27;9.80;;;;;;;31.59;36.08;97700.34;10331746;28;20057;-56
2023/08/23 09:23:46;;;;;;;10.73;9.45;;;;;;;31.98;35.55;97708.50;10329996;28;20128;-56
2023/08/23 09:28:45;;;;;;;13.05;9.98;;;;;;;32.08;34.64;97694.31;10328915;28;20113;-56
2023/08/23 09:33:46;;;;;;;13.43;9.80;;;;;;;32.20;34.30;97714.66;10330613;28;20048;-57
2023/08/23 09:38:45;;;;;;;11.38;10.13;;;;;;;32.51;34.84;97701.16;10319984;28;20149;-56
2023/08/23 09:43:47;;;;;;;10.98;9.00;;;;;;;32.57;33.44;97698.75;10324457;28;20050;-57
2023/08/23 09:48:47;;;;;;;11.68;10.13;;;;;;;32.76;33.46;97695.25;10322743;28;20120;-56
2023/08/23 09:53:51;;;;;;;12.07;10.02;;;;;;;32.77;33.38;97683.47;10319169;28;20103;-56
2023/08/23 09:58:50;;;;;;;11.13;9.63;;;;;;;32.74;32.41;97670.34;10330098;28;20072;-57
2023/08/23 10:03:49;;;;;;;10.35;8.68;;;;;;;32.68;31.59;97689.72;10335898;28;20067;-57
2023/08/23 10:08:48;;;;;;;11.05;8.95;;;;;;;32.81;32.63;97684.91;10336967;28;20025;-56
2023/08/23 10:13:51;;;;;;;10.30;8.38;;;;;;;32.83;30.56;97661.41;10333946;28;20094;-57
2023/08/23 10:18:52;;;;;;;11.20;8.82;;;;;;;33.12;29.91;97678.50;10319837;28;20678;-56
2023/08/23 10:23:51;;;;;;;15.55;14.02;;;;;;;33.25;30.66;97673.63;10324831;28;20068;-56
2023/08/23 10:28:52;;;;;;;10.93;9.35;;;;;;;33.32;30.81;97672.06;10323195;28;20021;-56
2023/08/23 10:33:55;;;;;;;13.52;10.40;;;;;;;33.54;30.14;97657.41;10325050;28;20108;-56
2023/08/23 10:38:58;;;;;;;13.27;9.50;;;;;;;33.55;31.50;97658.25;10324952;28;20749;-56
2023/08/23 10:43:59;;;;;;;9.43;8.50;;;;;;;33.60;30.11;97667.56;10329417;28;20084;-56
2023/08/23 10:48:58;;;;;;;9.80;8.48;;;;;;;33.30;29.62;97590.66;10327950;28;20060;-56
2023/08/23 10:53:58;;;;;;;11.15;8.82;;;;;;;33.70;30.64;97650.53;10326154;28;20144;-56
2023/08/23 10:58:58;;;;;;;11.82;8.85;;;;;;;33.94;30.07;97645.44;10325343;28;20117;-56
2023/08/23 11:03:57;;;;;;;11.82;8.32;;;;;;;34.05;29.29;97636.28;10328817;28;20452;-56
2023/08/23 11:08:58;;;;;;;10.38;9.23;;;;;;;33.82;28.84;97638.59;10328927;28;20080;-56
2023/08/23 11:13:57;;;;;;;11.35;8.52;;;;;;;33.89;29.58;97627.06;10341138;28;20064;-56
2023/08/23 11:18:56;;;;;;;10.32;8.20;;;;;;;33.95;29.20;97628.28;10327247;28;20113;-56
2023/08/23 11:23:55;;;;;;;10.20;7.95;;;;;;;33.91;28.46;97626.91;10331462;28;20051;-56
2023/08/23 11:28:54;;;;;;;10.00;8.18;;;;;;;34.07;27.68;97605.53;10323831;28;20100;-56
2023/08/23 11:33:53;;;;;;;8.73;7.88;;;;;;;34.14;28.41;97567.25;10316579;28;20041;-56
2023/08/23 11:38:53;;;;;;;10.02;7.75;;;;;;;34.80;27.00;97601.81;10323868;28;20116;-56
2023/08/23 11:43:52;;;;;;;8.70;7.80;;;;;;;34.83;26.53;97603.34;10322898;28;20077;-56
2023/08/23 11:48:51;;;;;;;8.63;7.18;;;;;;;34.25;26.25;97540.06;10322266;28;20065;-57
2023/08/23 11:53:54;;;;;;;11.35;8.10;;;;;;;34.66;26.04;97572.72;10323394;28;20021;-56
2023/08/23 11:58:53;;;;;;;9.02;7.20;;;;;;;35.11;25.95;97561.75;10329100;28;20069;-57
2023/08/23 12:03:52;;;;;;;8.82;7.85;;;;;;;35.77;25.17;97589.00;10333101;28;20104;-56
2023/08/23 12:08:51;;;;;;;13.57;7.97;;;;;;;35.82;25.40;97586.63;10332185;28;20148;-56
2023/08/23 12:13:50;;;;;;;8.55;7.75;;;;;;;36.10;25.02;97579.09;10332874;28;20064;-57
2023/08/23 12:18:49;;;;;;;9.45;7.78;;;;;;;35.79;24.49;97532.97;10334906;28;20109;-56
2023/08/23 12:23:48;;;;;;;8.00;7.30;;;;;;;35.94;24.23;97568.25;10334542;28;20037;-57
2023/08/23 12:28:47;;;;;;;8.88;7.97;;;;;;;35.85;25.17;97543.09;10335348;28;20032;-57
2023/08/23 12:33:46;;;;;;;8.77;7.35;;;;;;;35.75;24.41;97556.75;10338820;28;20108;-56
2023/08/23 12:38:45;;;;;;;10.35;7.75;;;;;;;35.82;24.88;97535.31;10334687;28;20065;-56
2023/08/23 12:43:44;;;;;;;8.40;7.60;;;;;;;35.96;23.70;97552.72;10331588;28;20077;-57
2023/08/23 12:48:43;;;;;;;10.18;7.50;;;;;;;36.00;22.87;97532.50;10332586;28;20025;-57
2023/08/23 12:53:42;;;;;;;7.70;6.90;;;;;;;36.07;22.91;97525.44;10333887;28;20500;-57
2023/08/23 12:58:41;;;;;;;7.55;6.85;;;;;;;36.49;22.92;97539.78;10333154;28;20018;-57
2023/08/23 13:03:40;;;;;;;8.13;7.32;;;;;;;36.32;22.03;97545.19;10330031;28;20101;-57
2023/08/23 13:08:39;;;;;;;9.45;7.47;;;;;;;36.23;23.31;97531.81;10330939;28;20021;-57
2023/08/23 13:13:41;;;;;;;9.68;7.70;;;;;;;36.50;23.44;97531.47;10329151;28;20038;-57
2023/08/23 13:18:40;;;;;;;12.93;7.70;;;;;;;36.21;24.34;97483.38;10328618;28;20096;-57
2023/08/23 13:23:39;;;;;;;11.20;7.63;;;;;;;36.51;23.95;97544.00;10321660;28;20031;-57
2023/08/23 13:28:38;;;;;;;8.15;7.30;;;;;;;36.18;25.01;97514.28;10330834;28;20079;-57
2023/08/23 13:33:37;;;;;;;9.38;7.55;;;;;;;36.12;26.90;97544.66;10332107;28;20041;-57
2023/08/23 13:38:36;;;;;;;9.15;7.88;;;;;;;35.71;28.63;97555.41;10333410;28;20124;-57
2023/08/23 13:43:35;;;;;;;15.07;8.90;;;;;;;35.20;29.82;97548.28;10330327;28;20040;-57
2023/08/23 13:48:34;;;;;;;11.15;9.05;;;;;;;34.86;30.74;97546.41;10329765;28;20840;-57
2023/08/23 13:53:33;;;;;;;13.07;9.30;;;;;;;34.56;31.29;97539.63;10333360;28;20083;-57
2023/08/23 13:58:32;;;;;;;11.43;9.18;;;;;;;34.53;31.93;97534.56;10333276;28;20040;-57
2023/08/23 14:03:31;;;;;;;12.27;8.98;;;;;;;34.40;32.00;97541.22;10332399;28;20065;-57
2023/08/23 14:08:30;;;;;;;13.93;9.18;;;;;;;34.44;31.72;97539.03;10330556;28;20021;-57
2023/08/23 14:13:30;;;;;;;10.18;9.10;;;;;;;34.51;32.89;97535.53;10328639;28;20021;-57
2023/08/23 14:18:29;;;;;;;13.15;9.25;;;;;;;34.57;32.58;97541.31;10331038;28;20064;-57
2023/08/23 14:23:28;;;;;;;10.20;9.07;;;;;;;34.64;32.67;97540.56;10329666;28;20032;-56
2023/08/23 14:28:27;;;;;;;12.70;9.13;;;;;;;34.75;32.76;97543.97;10327011;28;20029;-56
2023/08/23 14:33:25;;;;;;;15.00;9.35;;;;;;;34.72;31.86;97539.75;10327702;28;20133;-56
2023/08/23 14:38:24;;;;;;;10.65;8.60;;;;;;;34.60;31.78;97508.66;10323998;28;20067;-57
2023/08/23 14:43:23;;;;;;;12.90;8.55;;;;;;;34.67;31.02;97515.13;10329980;28;20137;-57
2023/08/23 14:48:22;;;;;;;12.80;9.15;;;;;;;34.80;30.90;97514.69;10329903;28;20040;-57
2023/08/23 14:53:21;;;;;;;10.65;9.23;;;;;;;34.82;30.61;97515.38;10326355;28;20025;-57
2023/08/23 14:58:20;;;;;;;9.68;8.75;;;;;;;34.85;31.14;97507.81;10320967;28;20053;-57
2023/08/23 15:03:19;;;;;;;10.70;9.02;;;;;;;34.85;30.44;97505.13;10323577;28;20057;-57
2023/08/23 15:08:18;;;;;;;10.65;8.70;;;;;;;34.67;30.80;97466.63;10327945;28;20108;-57
2023/08/23 15:13:17;;;;;;;13.73;8.82;;;;;;;34.85;30.42;97488.13;10327670;28;20037;-57
2023/08/23 15:18:16;;;;;;;8.80;7.90;;;;;;;34.76;30.70;97462.97;10328113;28;20477;-57
2023/08/23 15:23:15;;;;;;;12.05;9.02;;;;;;;34.79;30.56;97465.31;10322322;28;20203;-57
2023/08/23 15:28:14;;;;;;;11.05;9.20;;;;;;;34.65;30.83;97445.22;10317008;28;20105;-57
2023/08/23 15:33:13;;;;;;;13.15;9.45;;;;;;;34.60;31.04;97443.97;10315407;28;20029;-56
2023/08/23 15:38:12;;;;;;;11.95;9.20;;;;;;;34.78;31.11;97482.50;10326941;28;20076;-56
2023/08/23 15:43:11;;;;;;;9.75;8.63;;;;;;;34.41;31.55;97445.06;10339027;28;20033;-56
2023/08/23 15:48:10;;;;;;;11.85;8.68;;;;;;;34.46;31.52;97481.28;10337380;28;20863;-57
2023/08/23 15:53:09;;;;;;;13.68;8.93;;;;;;;34.25;31.84;97460.09;10327337;28;20392;-57
2023/08/23 15:58:08;;;;;;;11.70;8.77;;;;;;;34.24;31.95;97482.66;10326863;28;20120;-56
2023/08/23 16:03:07;;;;;;;18.83;9.85;;;;;;;34.08;32.15;97488.75;10322154;28;20476;-57
2023/08/23 16:08:06;;;;;;;20.08;9.98;;;;;;;33.67;32.50;97472.22;10323719;28;20779;-56
2023/08/23 16:13:05;;;;;;;13.98;9.18;;;;;;;33.50;32.69;97482.97;10325895;28;20396;-56
2023/08/23 16:18:05;;;;;;;12.85;8.98;;;;;;;32.94;33.26;97442.66;10327584;28;20025;-56
2023/08/23 16:23:04;;;;;;;11.52;9.02;;;;;;;32.82;34.27;97466.19;10332534;28;20069;-57
2023/08/23 16:28:04;;;;;;;16.23;9.88;;;;;;;32.60;34.81;97496.16;10327432;28;20053;-56
2023/08/23 16:33:05;;;;;;;11.80;9.68;;;;;;;32.08;35.41;97468.81;10321197;28;20061;-57
2023/08/23 16:38:04;;;;;;;12.15;9.88;;;;;;;31.94;35.63;97505.81;10321839;28;20195;-56
2023/08/23 16:43:03;;;;;;;20.52;10.13;;;;;;;31.65;35.98;97513.00;10336361;28;20130;-56
2023/08/23 16:48:03;;;;;;;11.15;9.35;;;;;;;31.33;36.42;97511.38;10329200;28;20069;-56
2023/08/23 16:53:03;;;;;;;27.40;10.27;;;;;;;31.01;36.52;97517.78;10341664;28;20535;-56
2023/08/23 16:58:03;;;;;;;39.70;11.43;;;;;;;30.71;37.23;97506.06;10329011;28;20072;-56
2023/08/23 17:03:03;;;;;;;11.00;9.13;;;;;;;30.23;37.59;97479.81;10335174;28;20068;-56
2023/08/23 17:08:03;;;;;;;12.68;9.65;;;;;;;30.11;38.16;97526.38;10332728;28;20072;-56
2023/08/23 17:13:02;;;;;;;14.95;10.15;;;;;;;29.85;39.25;97540.13;10334225;28;20057;-57
2023/08/23 17:18:01;;;;;;;19.77;10.40;;;;;;;29.56;39.88;97520.28;10334569;28;20084;-57
2023/08/23 17:23:00;;;;;;;15.68;11.75;;;;;;;29.33;40.73;97552.41;10334044;28;20131;-56
2023/08/23 17:28:03;;;;;;;15.02;10.85;;;;;;;29.06;41.70;97555.41;10335566;28;20457;-56
2023/08/23 17:33:04;;;;;;;13.38;10.45;;;;;;;28.78;41.84;97562.09;10333859;28;20072;-56
2023/08/23 17:38:03;;;;;;;16.17;10.43;;;;;;;28.63;42.29;97570.28;10333566;28;20057;-56
2023/08/23 17:43:02;;;;;;;17.33;10.75;;;;;;;28.47;42.89;97569.78;10333235;28;20084;-56
2023/08/23 17:48:01;;;;;;;15.98;10.20;;;;;;;28.27;42.77;97568.66;10333056;28;20072;-56
2023/08/23 17:53:03;;;;;;;13.20;10.10;;;;;;;27.96;42.64;97562.06;10332807;28;20519;-56
2023/08/23 17:58:03;;;;;;;13.57;10.65;;;;;;;27.85;43.17;97584.22;10331684;28;20519;-56
2023/08/23 18:03:02;;;;;;;12.68;11.30;;;;;;;27.11;43.22;97511.41;10332951;28;20065;-56
2023/08/23 18:08:01;;;;;;;14.55;11.00;;;;;;;27.25;43.17;97575.22;10331765;28;20049;-56
2023/08/23 18:13:00;;;;;;;13.52;10.82;;;;;;;27.19;43.26;97600.50;10341388;28;20028;-56
2023/08/23 18:17:59;;;;;;;13.32;10.30;;;;;;;27.04;43.46;97592.72;10332186;28;20026;-56
2023/08/23 18:22:58;;;;;;;11.48;10.02;;;;;;;26.73;43.96;97584.19;10338638;28;20057;-55
2023/08/23 18:27:58;;;;;;;12.70;9.98;;;;;;;26.39;43.98;97561.72;10338534;28;20112;-56
2023/08/23 18:32:57;;;;;;;12.80;9.60;;;;;;;26.47;44.67;97593.97;10329924;28;20073;-55
2023/08/23 18:37:56;;;;;;;12.45;10.00;;;;;;;26.35;44.36;97614.28;10328032;28;20079;-56
2023/08/23 18:42:55;;;;;;;13.32;10.82;;;;;;;26.33;44.54;97618.84;10327936;28;20045;-56
2023/08/23 18:47:54;;;;;;;14.80;11.52;;;;;;;26.16;45.92;97636.75;10326977;28;20021;-56
2023/08/23 18:52:53;;;;;;;17.15;13.00;;;;;;;26.05;48.38;97652.56;10325825;28;20041;-56
2023/08/23 18:57:52;;;;;;;13.82;11.63;;;;;;;25.73;48.94;97620.94;10327296;28;20844;-55
2023/08/23 19:02:51;;;;;;;20.95;11.75;;;;;;;25.79;48.58;97658.75;10327599;28;20036;-56
2023/08/23 19:07:50;;;;;;;17.10;11.93;;;;;;;25.71;47.92;97668.06;10326793;28;20076;-55
2023/08/23 19:12:49;;;;;;;11.57;10.00;;;;;;;25.55;47.66;97650.50;10327562;28;20026;-56
2023/08/23 19:17:52;;;;;;;18.10;10.75;;;;;;;25.47;48.68;97678.38;10326965;28;20060;-56
2023/08/23 19:22:51;;;;;;;12.40;11.05;;;;;;;25.47;48.88;97690.81;10327238;28;20098;-56
2023/08/23 19:27:52;;;;;;;14.95;11.18;;;;;;;25.32;49.48;97682.88;10323459;28;20025;-55
2023/08/23 19:32:51;;;;;;;13.45;11.43;;;;;;;25.22;49.84;97679.09;10327129;28;20063;-55
2023/08/23 19:37:50;;;;;;;11.85;10.65;;;;;;;25.19;49.64;97686.38;10325941;28;20072;-55
2023/08/23 19:42:49;;;;;;;16.42;10.93;;;;;;;25.21;49.75;97703.06;10326198;28;20073;-56
2023/08/23 19:47:48;;;;;;;15.88;11.70;;;;;;;25.13;50.12;97702.66;10326580;28;20112;-55
2023/08/23 19:52:47;;;;;;;16.20;11.68;;;;;;;24.88;50.27;97682.94;10325831;28;20025;-56
2023/08/23 19:57:46;;;;;;;13.32;11.93;;;;;;;24.92;51.05;97711.00;10325150;28;20147;-56
2023/08/23 20:02:48;;;;;;;18.48;12.82;;;;;;;24.85;51.53;97699.88;10326539;28;20029;-57
2023/08/23 20:07:47;;;;;;;15.20;12.07;;;;;;;24.80;51.89;97698.41;10325815;28;20073;-54
2023/08/23 20:12:46;;;;;;;16.10;11.05;;;;;;;24.73;52.36;97705.91;10324432;28;20028;-56
2023/08/23 20:17:46;;;;;;;17.08;12.43;;;;;;;24.52;52.77;97685.91;10326944;28;20033;-56
2023/08/23 20:22:45;;;;;;;16.52;11.82;;;;;;;24.41;52.83;97684.75;10339762;28;20064;-56
2023/08/23 20:27:44;;;;;;;14.40;12.23;;;;;;;24.14;53.22;97655.34;10333890;28;20087;-56
2023/08/23 20:32:43;;;;;;;21.45;12.98;;;;;;;24.18;54.20;97666.69;10332544;28;20029;-56
2023/08/23 20:37:42;;;;;;;17.45;13.07;;;;;;;24.35;54.87;97702.81;10342389;28;20049;-56
2023/08/23 20:42:41;;;;;;;16.65;12.35;;;;;;;24.08;54.98;97676.09;10333205;28;20041;-56
2023/08/23 20:47:40;;;;;;;16.05;12.93;;;;;;;24.12;55.35;97693.50;10332397;28;20065;-56
2023/08/23 20:52:39;;;;;;;15.15;12.77;;;;;;;24.05;55.72;97695.63;10332841;28;20048;-56
2023/08/23 20:57:37;;;;;;;15.07;12.70;;;;;;;23.90;56.84;97691.22;10332308;28;20037;-56
2023/08/23 21:02:37;;;;;;;15.90;12.60;;;;;;;23.76;57.23;97702.59;10332317;28;20042;-56
2023/08/23 21:07:36;;;;;;;15.80;12.13;;;;;;;23.62;57.53;97714.78;10332604;28;20053;-56
2023/08/23 21:12:35;;;;;;;16.20;12.25;;;;;;;23.45;58.39;97701.59;10332504;28;20025;-56
2023/08/23 21:17:34;;;;;;;16.20;13.18;;;;;;;22.76;58.43;97588.78;10331716;28;20073;-56
2023/08/23 21:22:33;;;;;;;14.40;12.27;;;;;;;23.47;58.11;97706.81;10323397;28;20045;-56
2023/08/23 21:27:32;;;;;;;14.32;12.65;;;;;;;23.39;58.70;97700.09;10331580;28;20574;-56
2023/08/23 21:32:31;;;;;;;17.77;13.70;;;;;;;23.23;59.63;97678.91;10337078;28;20563;-56
2023/08/23 21:37:29;;;;;;;16.08;12.68;;;;;;;23.29;60.20;97701.53;10330975;28;20664;-56
2023/08/23 21:42:29;;;;;;;19.92;14.30;;;;;;;23.29;60.64;97711.28;10330961;28;20119;-56
2023/08/23 21:47:28;;;;;;;18.92;14.27;;;;;;;22.92;61.28;97658.47;10330799;28;20037;-56
2023/08/23 21:52:27;;;;;;;19.23;15.13;;;;;;;23.12;61.93;97707.75;10330588;28;20067;-56
2023/08/23 21:57:26;;;;;;;23.70;14.68;;;;;;;22.85;62.20;97672.97;10328195;28;20140;-56
2023/08/23 22:02:25;;;;;;;21.85;14.30;;;;;;;22.89;63.00;97706.28;10331861;28;20021;-56
2023/08/23 22:07:24;;;;;;;20.02;14.77;;;;;;;22.86;62.67;97714.38;10350283;28;20627;-57
2023/08/23 22:12:23;;;;;;;21.35;14.52;;;;;;;22.75;62.49;97699.06;10349323;28;20591;-56
2023/08/23 22:17:22;;;;;;;19.92;15.00;;;;;;;22.77;62.93;97702.47;10343569;28;20123;-56
2023/08/23 22:22:21;;;;;;;17.50;14.20;;;;;;;22.71;63.00;97704.53;10343667;28;20030;-56
2023/08/23 22:27:20;;;;;;;19.42;13.75;;;;;;;22.67;63.18;97708.28;10342632;28;20061;-56
2023/08/23 22:32:19;;;;;;;25.38;15.45;;;;;;;22.63;64.75;97709.38;10348209;28;20387;-56
2023/08/23 22:37:18;;;;;;;16.73;14.23;;;;;;;22.44;65.68;97702.38;10348639;28;20103;-56
2023/08/23 22:42:17;;;;;;;19.58;14.48;;;;;;;22.05;65.72;97661.09;10349980;28;20116;-56
2023/08/23 22:47:17;;;;;;;16.70;14.40;;;;;;;21.97;65.19;97642.94;10347565;28;20024;-56